sensor_id;sensor_type;location;lat;lon;timestamp;pressure;altitude;pressure_sealevel;temperature
77414;BMP280;66486;49.992;19.164;2023-03-01T00:01:49;100093.66;;;-1.26
77414;BMP280;66486;49.992;19.164;2023-03-01T00:04:15;100088.16;;;-1.16
77414;BMP280;66486;49.992;19.164;2023-03-01T00:06:44;100086.41;;;-1.21
77414;BMP280;66486;49.992;19.164;2023-03-01T00:09:13;100093.09;;;-1.51
77414;BMP280;66486;49.992;19.164;2023-03-01T00:11:39;100091.81;;;-1.67
77414;BMP280;66486;49.992;19.164;2023-03-01T00:14:06;100086.56;;;-1.67
77414;BMP280;66486;49.992;19.164;2023-03-01T00:16:45;100092.03;;;-1.63
77414;BMP280;66486;49.992;19.164;2023-03-01T00:19:19;100098.75;;;-1.57
77414;BMP280;66486;49.992;19.164;2023-03-01T00:21:45;100098.88;;;-1.62
77414;BMP280;66486;49.992;19.164;2023-03-01T00:24:12;100096.63;;;-1.55
77414;BMP280;66486;49.992;19.164;2023-03-01T00:26:37;100098.38;;;-1.51
77414;BMP280;66486;49.992;19.164;2023-03-01T00:29:04;100095.72;;;-1.51
77414;BMP280;66486;49.992;19.164;2023-03-01T00:31:31;100095.31;;;-1.58
77414;BMP280;66486;49.992;19.164;2023-03-01T00:34:03;100090.06;;;-1.71
77414;BMP280;66486;49.992;19.164;2023-03-01T00:36:35;100093.09;;;-1.51
77414;BMP280;66486;49.992;19.164;2023-03-01T00:39:03;100081.72;;;-1.37
77414;BMP280;66486;49.992;19.164;2023-03-01T00:41:30;100077.13;;;-1.32
77414;BMP280;66486;49.992;19.164;2023-03-01T00:43:56;100081.25;;;-1.39
77414;BMP280;66486;49.992;19.164;2023-03-01T00:46:25;100078.31;;;-1.38
77414;BMP280;66486;49.992;19.164;2023-03-01T00:48:52;100067.59;;;-1.55
77414;BMP280;66486;49.992;19.164;2023-03-01T00:51:26;100058.41;;;-1.44
77414;BMP280;66486;49.992;19.164;2023-03-01T00:53:55;100060.44;;;-1.41
77414;BMP280;66486;49.992;19.164;2023-03-01T00:56:22;100061.75;;;-1.66
77414;BMP280;66486;49.992;19.164;2023-03-01T00:58:48;100062.91;;;-1.58
77414;BMP280;66486;49.992;19.164;2023-03-01T01:01:17;100061.38;;;-1.73
77414;BMP280;66486;49.992;19.164;2023-03-01T01:03:49;100061.66;;;-1.74
77414;BMP280;66486;49.992;19.164;2023-03-01T01:06:21;100054.19;;;-1.86
77414;BMP280;66486;49.992;19.164;2023-03-01T01:08:48;100058.03;;;-1.78
77414;BMP280;66486;49.992;19.164;2023-03-01T01:11:14;100063.19;;;-1.60
77414;BMP280;66486;49.992;19.164;2023-03-01T01:13:41;100065.03;;;-1.47
77414;BMP280;66486;49.992;19.164;2023-03-01T01:16:08;100051.25;;;-1.43
77414;BMP280;66486;49.992;19.164;2023-03-01T01:18:35;100059.06;;;-1.38
77414;BMP280;66486;49.992;19.164;2023-03-01T01:21:10;100061.69;;;-1.38
77414;BMP280;66486;49.992;19.164;2023-03-01T01:23:38;100059.25;;;-1.35
77414;BMP280;66486;49.992;19.164;2023-03-01T01:26:19;100059.34;;;-1.26
77414;BMP280;66486;49.992;19.164;2023-03-01T01:28:47;100055.34;;;-1.37
77414;BMP280;66486;49.992;19.164;2023-03-01T01:31:14;100045.63;;;-1.51
77414;BMP280;66486;49.992;19.164;2023-03-01T01:33:40;100041.81;;;-1.72
77414;BMP280;66486;49.992;19.164;2023-03-01T01:36:07;100038.59;;;-1.96
77414;BMP280;66486;49.992;19.164;2023-03-01T01:38:35;100045.91;;;-2.07
77414;BMP280;66486;49.992;19.164;2023-03-01T01:41:01;100036.44;;;-2.08
77414;BMP280;66486;49.992;19.164;2023-03-01T01:46:50;100045.34;;;-1.76
77414;BMP280;66486;49.992;19.164;2023-03-01T01:49:32;100041.31;;;-1.60
77414;BMP280;66486;49.992;19.164;2023-03-01T01:52:24;100027.72;;;-1.54
77414;BMP280;66486;49.992;19.164;2023-03-01T01:54:59;100033.13;;;-1.72
77414;BMP280;66486;49.992;19.164;2023-03-01T01:57:37;100030.28;;;-1.89
77414;BMP280;66486;49.992;19.164;2023-03-01T02:00:11;100028.84;;;-1.82
77414;BMP280;66486;49.992;19.164;2023-03-01T02:02:39;100022.88;;;-1.87
77414;BMP280;66486;49.992;19.164;2023-03-01T02:05:20;100023.16;;;-1.89
77414;BMP280;66486;49.992;19.164;2023-03-01T02:07:48;100018.56;;;-1.70
77414;BMP280;66486;49.992;19.164;2023-03-01T02:10:15;100014.97;;;-1.87
77414;BMP280;66486;49.992;19.164;2023-03-01T02:12:41;100013.88;;;-1.86
77414;BMP280;66486;49.992;19.164;2023-03-01T02:15:07;100019.44;;;-1.88
77414;BMP280;66486;49.992;19.164;2023-03-01T02:17:34;100017.09;;;-1.76
77414;BMP280;66486;49.992;19.164;2023-03-01T02:22:30;100008.91;;;-1.74
77414;BMP280;66486;49.992;19.164;2023-03-01T02:25:23;100019.06;;;-1.68
77414;BMP280;66486;49.992;19.164;2023-03-01T02:28:30;100021.31;;;-1.75
77414;BMP280;66486;49.992;19.164;2023-03-01T02:30:54;100017.84;;;-2.30
77414;BMP280;66486;49.992;19.164;2023-03-01T02:33:39;100013.97;;;-2.19
77414;BMP280;66486;49.992;19.164;2023-03-01T02:36:10;100009.69;;;-1.87
77414;BMP280;66486;49.992;19.164;2023-03-01T02:38:40;100000.34;;;-1.80
77414;BMP280;66486;49.992;19.164;2023-03-01T02:41:08;100012.41;;;-1.79
77414;BMP280;66486;49.992;19.164;2023-03-01T02:43:36;100002.84;;;-1.75
77414;BMP280;66486;49.992;19.164;2023-03-01T02:46:07;100007.06;;;-1.87
77414;BMP280;66486;49.992;19.164;2023-03-01T02:48:45;100013.28;;;-1.97
77414;BMP280;66486;49.992;19.164;2023-03-01T02:54:33;100007.09;;;-2.61
77414;BMP280;66486;49.992;19.164;2023-03-01T02:57:03;100014.72;;;-2.97
77414;BMP280;66486;49.992;19.164;2023-03-01T02:59:35;100010.97;;;-2.58
77414;BMP280;66486;49.992;19.164;2023-03-01T03:02:18;100014.91;;;-2.42
77414;BMP280;66486;49.992;19.164;2023-03-01T03:04:46;100013.03;;;-2.42
77414;BMP280;66486;49.992;19.164;2023-03-01T03:07:12;100003.59;;;-2.43
77414;BMP280;66486;49.992;19.164;2023-03-01T03:09:38;99997.50;;;-2.57
77414;BMP280;66486;49.992;19.164;2023-03-01T03:12:05;99998.94;;;-2.18
77414;BMP280;66486;49.992;19.164;2023-03-01T03:14:30;100004.16;;;-2.46
77414;BMP280;66486;49.992;19.164;2023-03-01T03:17:00;99999.94;;;-2.60
77414;BMP280;66486;49.992;19.164;2023-03-01T03:19:31;100011.66;;;-2.85
77414;BMP280;66486;49.992;19.164;2023-03-01T03:21:58;100007.00;;;-2.93
77414;BMP280;66486;49.992;19.164;2023-03-01T03:24:24;100001.63;;;-2.51
77414;BMP280;66486;49.992;19.164;2023-03-01T03:26:50;100003.16;;;-2.17
77414;BMP280;66486;49.992;19.164;2023-03-01T03:29:16;99995.63;;;-2.10
77414;BMP280;66486;49.992;19.164;2023-03-01T03:31:42;100001.19;;;-2.12
77414;BMP280;66486;49.992;19.164;2023-03-01T03:34:08;100005.69;;;-1.99
77414;BMP280;66486;49.992;19.164;2023-03-01T03:36:36;100009.56;;;-2.23
77414;BMP280;66486;49.992;19.164;2023-03-01T03:39:02;100012.56;;;-2.44
77414;BMP280;66486;49.992;19.164;2023-03-01T03:41:28;100008.81;;;-2.56
77414;BMP280;66486;49.992;19.164;2023-03-01T03:43:54;100008.47;;;-2.36
77414;BMP280;66486;49.992;19.164;2023-03-01T03:46:20;100012.75;;;-2.54
77414;BMP280;66486;49.992;19.164;2023-03-01T03:48:46;100004.28;;;-2.37
77414;BMP280;66486;49.992;19.164;2023-03-01T03:51:14;100003.25;;;-2.22
77414;BMP280;66486;49.992;19.164;2023-03-01T03:53:40;99991.53;;;-2.16
77414;BMP280;66486;49.992;19.164;2023-03-01T03:56:06;99982.13;;;-2.50
77414;BMP280;66486;49.992;19.164;2023-03-01T03:58:32;99983.78;;;-2.54
77414;BMP280;66486;49.992;19.164;2023-03-01T04:00:59;99980.88;;;-2.71
77414;BMP280;66486;49.992;19.164;2023-03-01T04:03:27;99980.38;;;-2.54
77414;BMP280;66486;49.992;19.164;2023-03-01T04:05:57;99976.66;;;-2.40
77414;BMP280;66486;49.992;19.164;2023-03-01T04:08:23;99983.91;;;-2.64
77414;BMP280;66486;49.992;19.164;2023-03-01T04:10:52;99988.56;;;-2.74
77414;BMP280;66486;49.992;19.164;2023-03-01T04:13:21;99989.41;;;-2.60
77414;BMP280;66486;49.992;19.164;2023-03-01T04:15:51;99986.31;;;-2.62
77414;BMP280;66486;49.992;19.164;2023-03-01T04:18:19;100001.47;;;-2.73
77414;BMP280;66486;49.992;19.164;2023-03-01T04:20:46;100002.63;;;-2.79
77414;BMP280;66486;49.992;19.164;2023-03-01T04:23:17;100001.09;;;-2.66
77414;BMP280;66486;49.992;19.164;2023-03-01T04:28:26;100000.16;;;-2.57
77414;BMP280;66486;49.992;19.164;2023-03-01T04:30:54;100005.84;;;-2.50
77414;BMP280;66486;49.992;19.164;2023-03-01T04:33:21;100008.03;;;-2.57
77414;BMP280;66486;49.992;19.164;2023-03-01T04:35:48;99999.06;;;-2.56
77414;BMP280;66486;49.992;19.164;2023-03-01T04:38:18;100007.97;;;-2.52
77414;BMP280;66486;49.992;19.164;2023-03-01T04:40:45;100010.66;;;-2.89
77414;BMP280;66486;49.992;19.164;2023-03-01T04:43:12;100016.34;;;-2.82
77414;BMP280;66486;49.992;19.164;2023-03-01T04:45:41;100012.25;;;-2.88
77414;BMP280;66486;49.992;19.164;2023-03-01T04:48:07;100007.13;;;-2.66
77414;BMP280;66486;49.992;19.164;2023-03-01T04:50:34;100003.78;;;-2.71
77414;BMP280;66486;49.992;19.164;2023-03-01T04:53:00;100006.97;;;-2.56
77414;BMP280;66486;49.992;19.164;2023-03-01T04:55:27;100013.38;;;-2.75
77414;BMP280;66486;49.992;19.164;2023-03-01T04:57:54;100008.09;;;-2.75
77414;BMP280;66486;49.992;19.164;2023-03-01T05:00:21;100002.50;;;-2.55
77414;BMP280;66486;49.992;19.164;2023-03-01T05:02:51;99996.31;;;-2.64
77414;BMP280;66486;49.992;19.164;2023-03-01T05:05:32;99995.53;;;-2.65
77414;BMP280;66486;49.992;19.164;2023-03-01T05:08:03;99990.44;;;-2.75
77414;BMP280;66486;49.992;19.164;2023-03-01T05:10:30;100001.25;;;-2.76
77414;BMP280;66486;49.992;19.164;2023-03-01T05:12:58;99992.81;;;-2.60
77414;BMP280;66486;49.992;19.164;2023-03-01T05:15:30;99990.06;;;-2.68
77414;BMP280;66486;49.992;19.164;2023-03-01T05:17:58;99988.69;;;-2.79
77414;BMP280;66486;49.992;19.164;2023-03-01T05:20:29;99986.53;;;-2.64
77414;BMP280;66486;49.992;19.164;2023-03-01T05:22:59;99980.97;;;-2.44
77414;BMP280;66486;49.992;19.164;2023-03-01T05:25:26;99973.94;;;-2.48
77414;BMP280;66486;49.992;19.164;2023-03-01T05:27:52;99983.88;;;-2.45
77414;BMP280;66486;49.992;19.164;2023-03-01T05:30:19;99987.44;;;-2.68
77414;BMP280;66486;49.992;19.164;2023-03-01T05:32:47;99982.22;;;-2.87
77414;BMP280;66486;49.992;19.164;2023-03-01T05:35:16;99977.75;;;-2.87
77414;BMP280;66486;49.992;19.164;2023-03-01T05:37:46;99983.56;;;-2.90
77414;BMP280;66486;49.992;19.164;2023-03-01T05:40:17;99991.13;;;-3.02
77414;BMP280;66486;49.992;19.164;2023-03-01T05:42:45;99979.69;;;-2.78
77414;BMP280;66486;49.992;19.164;2023-03-01T05:45:12;99992.97;;;-2.83
77414;BMP280;66486;49.992;19.164;2023-03-01T05:47:42;100000.03;;;-3.35
77414;BMP280;66486;49.992;19.164;2023-03-01T05:50:19;99984.69;;;-2.96
77414;BMP280;66486;49.992;19.164;2023-03-01T05:52:47;99984.69;;;-2.77
77414;BMP280;66486;49.992;19.164;2023-03-01T05:55:16;99980.06;;;-2.85
77414;BMP280;66486;49.992;19.164;2023-03-01T05:57:42;99980.88;;;-2.71
77414;BMP280;66486;49.992;19.164;2023-03-01T06:00:10;99981.72;;;-2.57
77414;BMP280;66486;49.992;19.164;2023-03-01T06:02:36;99989.75;;;-2.67
77414;BMP280;66486;49.992;19.164;2023-03-01T06:05:05;99994.13;;;-2.57
77414;BMP280;66486;49.992;19.164;2023-03-01T06:07:31;99996.19;;;-2.41
77414;BMP280;66486;49.992;19.164;2023-03-01T06:09:58;99983.41;;;-2.33
77414;BMP280;66486;49.992;19.164;2023-03-01T06:12:23;99987.59;;;-2.32
77414;BMP280;66486;49.992;19.164;2023-03-01T06:14:49;99983.91;;;-2.31
77414;BMP280;66486;49.992;19.164;2023-03-01T06:17:15;99992.25;;;-2.89
77414;BMP280;66486;49.992;19.164;2023-03-01T06:19:42;99992.25;;;-3.08
77414;BMP280;66486;49.992;19.164;2023-03-01T06:22:07;99993.19;;;-3.17
77414;BMP280;66486;49.992;19.164;2023-03-01T06:24:34;99995.59;;;-2.83
77414;BMP280;66486;49.992;19.164;2023-03-01T06:27:00;100003.09;;;-2.77
77414;BMP280;66486;49.992;19.164;2023-03-01T06:29:26;99999.59;;;-3.23
77414;BMP280;66486;49.992;19.164;2023-03-01T06:31:53;100003.28;;;-3.06
77414;BMP280;66486;49.992;19.164;2023-03-01T06:34:19;100006.59;;;-3.38
77414;BMP280;66486;49.992;19.164;2023-03-01T06:36:47;100008.53;;;-3.43
77414;BMP280;66486;49.992;19.164;2023-03-01T06:39:13;100006.09;;;-3.16
77414;BMP280;66486;49.992;19.164;2023-03-01T06:41:39;100001.44;;;-2.87
77414;BMP280;66486;49.992;19.164;2023-03-01T06:44:05;100012.38;;;-2.79
77414;BMP280;66486;49.992;19.164;2023-03-01T06:46:32;100013.16;;;-2.79
77414;BMP280;66486;49.992;19.164;2023-03-01T06:48:58;99989.50;;;-2.65
77414;BMP280;66486;49.992;19.164;2023-03-01T06:51:25;100007.88;;;-2.47
77414;BMP280;66486;49.992;19.164;2023-03-01T06:53:51;100007.25;;;-2.25
77414;BMP280;66486;49.992;19.164;2023-03-01T06:56:17;99999.53;;;-2.21
77414;BMP280;66486;49.992;19.164;2023-03-01T06:58:43;99999.16;;;-2.15
77414;BMP280;66486;49.992;19.164;2023-03-01T07:01:09;100007.81;;;-2.01
77414;BMP280;66486;49.992;19.164;2023-03-01T07:03:35;100008.59;;;-2.00
77414;BMP280;66486;49.992;19.164;2023-03-01T07:06:01;99999.84;;;-2.09
77414;BMP280;66486;49.992;19.164;2023-03-01T07:08:27;100014.75;;;-2.05
77414;BMP280;66486;49.992;19.164;2023-03-01T07:10:57;100005.50;;;-2.02
77414;BMP280;66486;49.992;19.164;2023-03-01T07:13:24;100007.94;;;-1.78
77414;BMP280;66486;49.992;19.164;2023-03-01T07:15:50;100006.88;;;-1.77
77414;BMP280;66486;49.992;19.164;2023-03-01T07:18:16;100002.44;;;-1.68
77414;BMP280;66486;49.992;19.164;2023-03-01T07:20:41;100004.41;;;-1.74
77414;BMP280;66486;49.992;19.164;2023-03-01T07:23:08;100002.44;;;-1.68
77414;BMP280;66486;49.992;19.164;2023-03-01T07:25:33;99998.91;;;-1.64
77414;BMP280;66486;49.992;19.164;2023-03-01T07:28:00;99988.56;;;-1.60
77414;BMP280;66486;49.992;19.164;2023-03-01T07:30:26;99991.50;;;-1.62
77414;BMP280;66486;49.992;19.164;2023-03-01T07:32:55;99993.19;;;-1.66
77414;BMP280;66486;49.992;19.164;2023-03-01T07:35:22;99988.28;;;-1.59
77414;BMP280;66486;49.992;19.164;2023-03-01T07:37:49;99983.41;;;-1.43
77414;BMP280;66486;49.992;19.164;2023-03-01T07:40:14;99976.75;;;-1.27
77414;BMP280;66486;49.992;19.164;2023-03-01T07:42:41;99967.16;;;-1.23
77414;BMP280;66486;49.992;19.164;2023-03-01T07:45:07;99968.66;;;-1.08
77414;BMP280;66486;49.992;19.164;2023-03-01T07:47:33;99972.25;;;-0.82
77414;BMP280;66486;49.992;19.164;2023-03-01T07:49:59;99965.91;;;-0.81
77414;BMP280;66486;49.992;19.164;2023-03-01T07:52:26;99965.91;;;-0.72
77414;BMP280;66486;49.992;19.164;2023-03-01T07:54:52;99961.94;;;-0.61
77414;BMP280;66486;49.992;19.164;2023-03-01T07:57:18;99956.81;;;-0.58
77414;BMP280;66486;49.992;19.164;2023-03-01T07:59:44;99953.38;;;-0.67
77414;BMP280;66486;49.992;19.164;2023-03-01T08:02:10;99946.41;;;-0.54
77414;BMP280;66486;49.992;19.164;2023-03-01T08:04:36;99942.75;;;-0.44
77414;BMP280;66486;49.992;19.164;2023-03-01T08:07:05;99949.06;;;-0.54
77414;BMP280;66486;49.992;19.164;2023-03-01T08:09:31;99948.03;;;-0.36
77414;BMP280;66486;49.992;19.164;2023-03-01T08:11:57;99945.47;;;-0.27
77414;BMP280;66486;49.992;19.164;2023-03-01T08:14:26;99948.44;;;-0.20
77414;BMP280;66486;49.992;19.164;2023-03-01T08:16:53;99947.97;;;-0.14
77414;BMP280;66486;49.992;19.164;2023-03-01T08:19:20;99946.31;;;-0.01
77414;BMP280;66486;49.992;19.164;2023-03-01T08:21:46;99951.91;;;-0.03
77414;BMP280;66486;49.992;19.164;2023-03-01T08:24:12;99951.31;;;0.09
77414;BMP280;66486;49.992;19.164;2023-03-01T08:26:38;99949.44;;;0.27
77414;BMP280;66486;49.992;19.164;2023-03-01T08:29:04;99953.50;;;0.33
77414;BMP280;66486;49.992;19.164;2023-03-01T08:31:38;99945.09;;;0.31
77414;BMP280;66486;49.992;19.164;2023-03-01T08:34:12;99955.03;;;0.42
77414;BMP280;66486;49.992;19.164;2023-03-01T08:36:44;99952.09;;;0.52
77414;BMP280;66486;49.992;19.164;2023-03-01T08:39:12;99953.66;;;0.62
77414;BMP280;66486;49.992;19.164;2023-03-01T08:41:39;99942.09;;;0.67
77414;BMP280;66486;49.992;19.164;2023-03-01T08:44:06;99939.31;;;0.80
77414;BMP280;66486;49.992;19.164;2023-03-01T08:46:38;99937.88;;;0.91
77414;BMP280;66486;49.992;19.164;2023-03-01T08:49:18;99943.59;;;1.11
77414;BMP280;66486;49.992;19.164;2023-03-01T08:51:46;99934.84;;;1.19
77414;BMP280;66486;49.992;19.164;2023-03-01T08:54:15;99931.69;;;1.25
77414;BMP280;66486;49.992;19.164;2023-03-01T08:56:42;99932.88;;;1.36
77414;BMP280;66486;49.992;19.164;2023-03-01T08:59:10;99938.31;;;1.48
77414;BMP280;66486;49.992;19.164;2023-03-01T09:01:36;99933.63;;;1.45
77414;BMP280;66486;49.992;19.164;2023-03-01T09:04:03;99932.91;;;1.66
77414;BMP280;66486;49.992;19.164;2023-03-01T09:06:33;99932.56;;;1.76
77414;BMP280;66486;49.992;19.164;2023-03-01T09:09:00;99930.19;;;2.03
77414;BMP280;66486;49.992;19.164;2023-03-01T09:11:27;99926.81;;;2.15
77414;BMP280;66486;49.992;19.164;2023-03-01T09:13:53;99929.00;;;2.13
77414;BMP280;66486;49.992;19.164;2023-03-01T09:16:20;99933.34;;;2.18
77414;BMP280;66486;49.992;19.164;2023-03-01T09:18:52;99924.84;;;2.45
77414;BMP280;66486;49.992;19.164;2023-03-01T09:21:20;99926.72;;;2.44
77414;BMP280;66486;49.992;19.164;2023-03-01T09:23:47;99929.66;;;2.51
77414;BMP280;66486;49.992;19.164;2023-03-01T09:26:16;99931.38;;;2.47
77414;BMP280;66486;49.992;19.164;2023-03-01T09:28:43;99938.94;;;2.58
77414;BMP280;66486;49.992;19.164;2023-03-01T09:31:11;99933.66;;;2.58
77414;BMP280;66486;49.992;19.164;2023-03-01T09:33:39;99923.72;;;2.67
77414;BMP280;66486;49.992;19.164;2023-03-01T09:36:10;99924.63;;;2.95
77414;BMP280;66486;49.992;19.164;2023-03-01T09:38:36;99928.34;;;3.15
77414;BMP280;66486;49.992;19.164;2023-03-01T09:41:08;99925.13;;;3.09
77414;BMP280;66486;49.992;19.164;2023-03-01T09:43:51;99930.88;;;3.23
77414;BMP280;66486;49.992;19.164;2023-03-01T09:46:22;99931.78;;;3.15
77414;BMP280;66486;49.992;19.164;2023-03-01T09:48:52;99941.97;;;3.13
77414;BMP280;66486;49.992;19.164;2023-03-01T09:51:35;99928.31;;;3.02
77414;BMP280;66486;49.992;19.164;2023-03-01T09:54:05;99934.88;;;3.17
77414;BMP280;66486;49.992;19.164;2023-03-01T09:56:46;99931.00;;;3.39
77414;BMP280;66486;49.992;19.164;2023-03-01T09:59:25;99931.53;;;3.56
77414;BMP280;66486;49.992;19.164;2023-03-01T10:09:48;99922.94;;;3.99
77414;BMP280;66486;49.992;19.164;2023-03-01T10:12:31;99921.19;;;3.91
77414;BMP280;66486;49.992;19.164;2023-03-01T10:15:14;99923.34;;;4.13
77414;BMP280;66486;49.992;19.164;2023-03-01T10:17:51;99914.94;;;3.99
77414;BMP280;66486;49.992;19.164;2023-03-01T10:20:23;99920.31;;;4.15
77414;BMP280;66486;49.992;19.164;2023-03-01T10:22:50;99913.03;;;4.40
77414;BMP280;66486;49.992;19.164;2023-03-01T10:25:36;99913.91;;;4.59
77414;BMP280;66486;49.992;19.164;2023-03-01T10:30:50;99904.03;;;4.60
77414;BMP280;66486;49.992;19.164;2023-03-01T10:33:22;99894.66;;;4.66
77414;BMP280;66486;49.992;19.164;2023-03-01T10:35:49;99894.84;;;4.89
77414;BMP280;66486;49.992;19.164;2023-03-01T10:38:17;99897.25;;;4.94
77414;BMP280;66486;49.992;19.164;2023-03-01T10:41:05;99885.00;;;5.24
77414;BMP280;66486;49.992;19.164;2023-03-01T10:43:47;99894.66;;;5.13
77414;BMP280;66486;49.992;19.164;2023-03-01T10:49:14;99898.13;;;4.98
77414;BMP280;66486;49.992;19.164;2023-03-01T10:51:42;99897.00;;;4.67
77414;BMP280;66486;49.992;19.164;2023-03-01T10:54:21;99898.34;;;4.77
77414;BMP280;66486;49.992;19.164;2023-03-01T10:56:50;99893.97;;;4.85
77414;BMP280;66486;49.992;19.164;2023-03-01T10:59:30;99889.66;;;5.11
77414;BMP280;66486;49.992;19.164;2023-03-01T11:04:28;99879.66;;;5.24
77414;BMP280;66486;49.992;19.164;2023-03-01T11:06:59;99877.50;;;5.30
77414;BMP280;66486;49.992;19.164;2023-03-01T11:09:25;99864.94;;;5.30
77414;BMP280;66486;49.992;19.164;2023-03-01T11:11:57;99869.47;;;5.45
77414;BMP280;66486;49.992;19.164;2023-03-01T11:14:47;99866.88;;;5.49
77414;BMP280;66486;49.992;19.164;2023-03-01T11:17:30;99857.78;;;5.72
77414;BMP280;66486;49.992;19.164;2023-03-01T11:22:51;99857.78;;;5.72
77414;BMP280;66486;49.992;19.164;2023-03-01T11:25:24;99855.97;;;5.76
77414;BMP280;66486;49.992;19.164;2023-03-01T11:27:51;99850.00;;;5.83
77414;BMP280;66486;49.992;19.164;2023-03-01T11:30:26;99851.53;;;6.03
77414;BMP280;66486;49.992;19.164;2023-03-01T11:35:59;99842.06;;;6.28
77414;BMP280;66486;49.992;19.164;2023-03-01T11:38:28;99843.38;;;6.38
77414;BMP280;66486;49.992;19.164;2023-03-01T11:41:23;99838.25;;;6.07
77414;BMP280;66486;49.992;19.164;2023-03-01T11:43:54;99830.72;;;6.12
77414;BMP280;66486;49.992;19.164;2023-03-01T11:52:02;99836.78;;;6.55
77414;BMP280;66486;49.992;19.164;2023-03-01T12:00:33;99818.19;;;6.62
77414;BMP280;66486;49.992;19.164;2023-03-01T12:03:28;99823.84;;;6.83
77414;BMP280;66486;49.992;19.164;2023-03-01T12:08:38;99816.28;;;6.62
77414;BMP280;66486;49.992;19.164;2023-03-01T12:35:58;99784.41;;;6.76
77414;BMP280;66486;49.992;19.164;2023-03-01T12:49:28;99753.53;;;6.82
77414;BMP280;66486;49.992;19.164;2023-03-01T12:52:03;99752.72;;;6.78
77414;BMP280;66486;49.992;19.164;2023-03-01T12:54:36;99755.75;;;7.07
77414;BMP280;66486;49.992;19.164;2023-03-01T12:57:17;99752.38;;;7.10
77414;BMP280;66486;49.992;19.164;2023-03-01T13:02:42;99756.72;;;7.21
77414;BMP280;66486;49.992;19.164;2023-03-01T13:05:28;99755.69;;;7.00
77414;BMP280;66486;49.992;19.164;2023-03-01T13:08:19;99760.06;;;6.85
77414;BMP280;66486;49.992;19.164;2023-03-01T13:10:49;99757.75;;;7.13
77414;BMP280;66486;49.992;19.164;2023-03-01T13:15:49;99750.00;;;7.05
77414;BMP280;66486;49.992;19.164;2023-03-01T13:20:48;99745.38;;;7.02
77414;BMP280;66486;49.992;19.164;2023-03-01T13:26:15;99742.88;;;7.16
77414;BMP280;66486;49.992;19.164;2023-03-01T13:34:02;99733.69;;;7.17
77414;BMP280;66486;49.992;19.164;2023-03-01T13:39:31;99732.38;;;7.33
77414;BMP280;66486;49.992;19.164;2023-03-01T13:45:17;99730.16;;;7.39
77414;BMP280;66486;49.992;19.164;2023-03-01T13:47:46;99725.09;;;7.34
77414;BMP280;66486;49.992;19.164;2023-03-01T13:50:54;99723.00;;;7.17
77414;BMP280;66486;49.992;19.164;2023-03-01T13:53:24;99721.31;;;7.02
77414;BMP280;66486;49.992;19.164;2023-03-01T13:56:00;99718.66;;;7.05
77414;BMP280;66486;49.992;19.164;2023-03-01T13:58:31;99717.16;;;7.08
77414;BMP280;66486;49.992;19.164;2023-03-01T14:01:04;99721.09;;;7.14
77414;BMP280;66486;49.992;19.164;2023-03-01T14:03:32;99721.09;;;7.14
77414;BMP280;66486;49.992;19.164;2023-03-01T14:06:06;99717.59;;;7.10
77414;BMP280;66486;49.992;19.164;2023-03-01T14:08:34;99717.53;;;7.06
77414;BMP280;66486;49.992;19.164;2023-03-01T14:11:29;99725.69;;;7.17
77414;BMP280;66486;49.992;19.164;2023-03-01T14:14:29;99713.81;;;7.14
77414;BMP280;66486;49.992;19.164;2023-03-01T14:19:47;99705.09;;;7.21
77414;BMP280;66486;49.992;19.164;2023-03-01T14:22:28;99695.75;;;7.08
77414;BMP280;66486;49.992;19.164;2023-03-01T14:24:57;99692.69;;;7.06
77414;BMP280;66486;49.992;19.164;2023-03-01T14:27:35;99686.97;;;7.04
77414;BMP280;66486;49.992;19.164;2023-03-01T14:30:15;99698.31;;;6.97
77414;BMP280;66486;49.992;19.164;2023-03-01T14:32:52;99685.81;;;7.08
77414;BMP280;66486;49.992;19.164;2023-03-01T14:35:29;99684.03;;;7.16
77414;BMP280;66486;49.992;19.164;2023-03-01T14:37:56;99684.50;;;6.91
77414;BMP280;66486;49.992;19.164;2023-03-01T14:42:56;99691.53;;;7.03
77414;BMP280;66486;49.992;19.164;2023-03-01T14:45:25;99690.44;;;7.11
77414;BMP280;66486;49.992;19.164;2023-03-01T14:47:53;99686.84;;;6.96
77414;BMP280;66486;49.992;19.164;2023-03-01T14:50:26;99691.38;;;6.89
77414;BMP280;66486;49.992;19.164;2023-03-01T14:53:02;99692.50;;;6.88
77414;BMP280;66486;49.992;19.164;2023-03-01T14:55:53;99688.34;;;6.94
77414;BMP280;66486;49.992;19.164;2023-03-01T14:58:23;99692.50;;;6.88
77414;BMP280;66486;49.992;19.164;2023-03-01T15:01:00;99689.16;;;6.68
77414;BMP280;66486;49.992;19.164;2023-03-01T15:03:35;99682.25;;;6.67
77414;BMP280;66486;49.992;19.164;2023-03-01T15:06:06;99676.56;;;6.69
77414;BMP280;66486;49.992;19.164;2023-03-01T15:08:34;99681.72;;;6.55
77414;BMP280;66486;49.992;19.164;2023-03-01T15:11:45;99673.03;;;6.61
77414;BMP280;66486;49.992;19.164;2023-03-01T15:13:52;99680.19;;;6.54
77414;BMP280;66486;49.992;19.164;2023-03-01T15:16:33;99687.84;;;6.55
77414;BMP280;66486;49.992;19.164;2023-03-01T15:19:02;99691.28;;;6.56
77414;BMP280;66486;49.992;19.164;2023-03-01T15:21:37;99677.34;;;6.40
77414;BMP280;66486;49.992;19.164;2023-03-01T15:26:36;99675.53;;;6.47
77414;BMP280;66486;49.992;19.164;2023-03-01T15:29:03;99677.78;;;6.45
77414;BMP280;66486;49.992;19.164;2023-03-01T15:31:34;99681.56;;;6.41
77414;BMP280;66486;49.992;19.164;2023-03-01T15:34:22;99676.16;;;6.37
77414;BMP280;66486;49.992;19.164;2023-03-01T15:36:50;99677.06;;;6.22
77414;BMP280;66486;49.992;19.164;2023-03-01T15:41:56;99678.81;;;5.88
77414;BMP280;66486;49.992;19.164;2023-03-01T15:44:31;99680.13;;;5.98
77414;BMP280;66486;49.992;19.164;2023-03-01T15:46:57;99676.34;;;5.99
77414;BMP280;66486;49.992;19.164;2023-03-01T15:49:36;99679.53;;;6.08
77414;BMP280;66486;49.992;19.164;2023-03-01T15:52:03;99668.84;;;6.08
77414;BMP280;66486;49.992;19.164;2023-03-01T15:54:30;99668.78;;;6.04
77414;BMP280;66486;49.992;19.164;2023-03-01T15:56:56;99677.34;;;5.91
77414;BMP280;66486;49.992;19.164;2023-03-01T15:59:22;99681.09;;;5.63
77414;BMP280;66486;49.992;19.164;2023-03-01T16:01:49;99679.38;;;5.52
77414;BMP280;66486;49.992;19.164;2023-03-01T16:04:17;99681.25;;;5.51
77414;BMP280;66486;49.992;19.164;2023-03-01T16:06:50;99683.38;;;5.42
77414;BMP280;66486;49.992;19.164;2023-03-01T16:09:24;99682.59;;;5.42
77414;BMP280;66486;49.992;19.164;2023-03-01T16:11:51;99693.03;;;5.50